createdAt,value
2018-01-28T00:01:56.597Z,1006.95
2018-01-28T00:02:56.628Z,1007.02
2018-01-28T00:03:56.659Z,1007.08
2018-01-28T00:04:56.691Z,1007.11
2018-01-28T00:05:56.924Z,1007.07
2018-01-28T00:06:56.755Z,1007.06
2018-01-28T00:07:56.788Z,1007.04
2018-01-28T00:08:56.818Z,1007.10
2018-01-28T00:09:56.848Z,1007.07
2018-01-28T00:10:56.973Z,1006.99
2018-01-28T00:11:56.907Z,1007.00
2018-01-28T00:12:56.940Z,1007.01
2018-01-28T00:13:56.980Z,1006.99
2018-01-28T00:14:57.006Z,1006.96
2018-01-28T00:15:57.049Z,1006.94
2018-01-28T00:16:57.071Z,1006.92
2018-01-28T00:17:57.173Z,1006.91
2018-01-28T00:18:57.133Z,1006.92
2018-01-28T00:19:57.161Z,1006.87
2018-01-28T00:20:57.194Z,1006.85
2018-01-28T00:21:57.223Z,1006.84
2018-01-28T00:22:57.254Z,1006.88
2018-01-28T00:23:57.288Z,1006.95
2018-01-28T00:24:57.318Z,1006.88
2018-01-28T00:25:57.350Z,1006.94
2018-01-28T00:26:57.379Z,1006.95
2018-01-28T00:27:57.413Z,1006.95
2018-01-28T00:28:57.450Z,1006.99
2018-01-28T00:29:57.538Z,1006.95
2018-01-28T00:30:57.505Z,1006.94
2018-01-28T00:31:57.540Z,1006.93
2018-01-28T00:32:57.573Z,1006.93
2018-01-28T00:33:57.600Z,1006.91
2018-01-28T00:34:57.847Z,1006.86
2018-01-28T00:35:57.666Z,1006.83
2018-01-28T00:36:57.693Z,1006.86
2018-01-28T00:37:57.726Z,1006.84
2018-01-28T00:38:57.755Z,1006.83
2018-01-28T00:39:57.793Z,1006.77
2018-01-28T00:40:57.821Z,1006.74
2018-01-28T00:41:57.851Z,1006.72
2018-01-28T00:43:57.917Z,1006.69
2018-01-28T00:44:57.951Z,1006.67
2018-01-28T00:45:57.977Z,1006.58
2018-01-28T00:46:58.010Z,1006.61
2018-01-28T00:47:58.044Z,1006.57
2018-01-28T00:48:58.072Z,1006.57
2018-01-28T00:49:58.102Z,1006.56
2018-01-28T00:50:58.134Z,1006.57
2018-01-28T00:51:58.187Z,1006.56
2018-01-28T00:52:58.196Z,1006.53
2018-01-28T00:53:58.232Z,1006.51
2018-01-28T00:54:58.261Z,1006.52
2018-01-28T00:55:58.297Z,1006.47
2018-01-28T00:56:58.325Z,1006.44
2018-01-28T00:57:58.354Z,1006.42
2018-01-28T00:58:58.393Z,1006.39
2018-01-28T00:59:58.426Z,1006.38
2018-01-28T01:00:58.454Z,1006.34
2018-01-28T01:01:58.482Z,1006.41
2018-01-28T01:02:58.516Z,1006.37
2018-01-28T01:03:58.548Z,1006.30
2018-01-28T01:04:58.584Z,1006.33
2018-01-28T01:05:58.609Z,1006.34
2018-01-28T01:06:58.647Z,1006.37
2018-01-28T01:07:58.675Z,1006.36
2018-01-28T01:08:58.710Z,1006.34
2018-01-28T01:09:58.740Z,1006.38
2018-01-28T01:10:58.801Z,1006.37
2018-01-28T01:11:58.798Z,1006.36
2018-01-28T01:12:58.833Z,1006.33
2018-01-28T01:13:58.868Z,1006.34
2018-01-28T01:14:58.917Z,1006.27
2018-01-28T01:15:58.932Z,1006.30
2018-01-28T01:16:58.963Z,1006.28
2018-01-28T01:17:59.012Z,1006.31
2018-01-28T01:18:59.035Z,1006.29
2018-01-28T01:19:59.057Z,1006.32
2018-01-28T01:20:59.089Z,1006.28
2018-01-28T01:21:59.118Z,1006.23
2018-01-28T01:22:59.150Z,1006.18
2018-01-28T01:23:59.181Z,1006.18
2018-01-28T01:24:59.210Z,1006.16
2018-01-28T01:25:59.242Z,1006.18
2018-01-28T01:26:59.276Z,1006.11
2018-01-28T01:27:59.308Z,1006.09
2018-01-28T01:28:59.343Z,1006.01
2018-01-28T01:29:59.370Z,1006.01
2018-01-28T01:30:59.456Z,1005.97
2018-01-28T01:31:59.443Z,1005.93
2018-01-28T01:32:59.480Z,1005.95
2018-01-28T01:33:59.498Z,1005.88
2018-01-28T01:34:59.541Z,1005.90
2018-01-28T01:35:59.562Z,1005.91
2018-01-28T01:36:59.598Z,1005.92
2018-01-28T01:37:59.625Z,1005.86
2018-01-28T01:38:59.653Z,1005.80
2018-01-28T01:39:59.688Z,1005.71
2018-01-28T01:40:59.719Z,1005.71
2018-01-28T01:41:59.868Z,1005.64
2018-01-28T01:42:59.781Z,1005.66
2018-01-28T01:43:59.814Z,1005.69
2018-01-28T01:44:59.845Z,1005.70
2018-01-28T01:45:59.880Z,1005.68
2018-01-28T01:46:59.915Z,1005.62
2018-01-28T01:47:59.940Z,1005.70
2018-01-28T01:48:59.969Z,1005.68
2018-01-28T01:50:00.004Z,1005.69
2018-01-28T01:51:00.041Z,1005.76
2018-01-28T01:52:00.124Z,1005.76
2018-01-28T01:53:00.101Z,1005.73
2018-01-28T01:54:00.178Z,1005.80
2018-01-28T01:55:00.181Z,1005.82
2018-01-28T01:56:00.194Z,1005.87
2018-01-28T01:57:00.223Z,1005.93
2018-01-28T01:58:00.255Z,1005.92
2018-01-28T01:59:00.290Z,1005.91
2018-01-28T02:00:00.322Z,1006.03
2018-01-28T02:01:00.351Z,1005.95
2018-01-28T02:02:00.384Z,1005.96
2018-01-28T02:03:00.414Z,1005.94
2018-01-28T02:04:00.445Z,1005.96
2018-01-28T02:05:00.480Z,1005.89
2018-01-28T02:06:00.511Z,1005.90
2018-01-28T02:07:00.546Z,1005.89
2018-01-28T02:08:00.655Z,1005.88
2018-01-28T02:09:00.604Z,1005.86
2018-01-28T02:10:00.639Z,1005.85
2018-01-28T02:11:00.671Z,1005.89
2018-01-28T02:12:00.703Z,1005.84
2018-01-28T02:13:00.732Z,1005.83
2018-01-28T02:14:00.764Z,1005.76
2018-01-28T02:15:00.794Z,1005.72
2018-01-28T02:16:00.834Z,1005.75
2018-01-28T02:17:00.859Z,1005.73
2018-01-28T02:18:00.893Z,1005.72
2018-01-28T02:19:00.978Z,1005.70
2018-01-28T02:20:00.954Z,1005.66
2018-01-28T02:21:00.987Z,1005.67
2018-01-28T02:22:01.018Z,1005.64
2018-01-28T02:23:01.051Z,1005.58
2018-01-28T02:24:01.082Z,1005.54
2018-01-28T02:25:01.116Z,1005.57
2018-01-28T02:26:01.145Z,1005.70
2018-01-28T02:27:01.174Z,1005.62
2018-01-28T02:28:01.207Z,1005.66
2018-01-28T02:29:01.248Z,1005.61
2018-01-28T02:30:01.276Z,1005.57
2018-01-28T02:31:01.320Z,1005.61
2018-01-28T02:32:01.657Z,1005.64
2018-01-28T02:33:01.365Z,1005.62
2018-01-28T02:34:01.397Z,1005.63
2018-01-28T02:35:01.432Z,1005.62
2018-01-28T02:36:01.464Z,1005.73
2018-01-28T02:37:01.495Z,1005.77
2018-01-28T02:38:01.525Z,1005.77
2018-01-28T02:39:01.556Z,1005.76
2018-01-28T02:40:01.589Z,1005.77
2018-01-28T02:41:01.617Z,1005.67
2018-01-28T02:42:01.649Z,1005.72
2018-01-28T02:43:01.686Z,1005.78
2018-01-28T02:44:01.776Z,1005.76
2018-01-28T02:45:01.755Z,1005.67
2018-01-28T02:46:01.776Z,1005.67
2018-01-28T02:47:01.811Z,1005.68
2018-01-28T02:48:01.839Z,1005.61
2018-01-28T02:49:01.872Z,1005.60
2018-01-28T02:50:01.910Z,1005.64
2018-01-28T02:51:02.007Z,1005.61
2018-01-28T02:52:01.966Z,1005.69
2018-01-28T02:53:01.999Z,1005.62
2018-01-28T02:54:02.041Z,1005.53
2018-01-28T02:55:02.065Z,1005.44
2018-01-28T02:56:02.092Z,1005.40
2018-01-28T02:57:02.127Z,1005.33
2018-01-28T02:58:02.163Z,1005.35
2018-01-28T02:59:02.188Z,1005.34
2018-01-28T03:00:02.249Z,1005.33
2018-01-28T03:01:02.454Z,1005.22
2018-01-28T03:02:02.284Z,1005.20
2018-01-28T03:03:02.318Z,1005.27
2018-01-28T03:04:02.348Z,1005.25
2018-01-28T03:05:02.378Z,1005.28
2018-01-28T03:06:02.412Z,1005.29
2018-01-28T03:07:02.444Z,1005.24
2018-01-28T03:08:02.543Z,1005.27
2018-01-28T03:09:02.505Z,1005.17
2018-01-28T03:10:02.540Z,1005.22
2018-01-28T03:11:02.584Z,1005.22
2018-01-28T03:12:02.602Z,1005.21
2018-01-28T03:13:02.633Z,1005.26
2018-01-28T03:14:02.664Z,1005.34
2018-01-28T03:15:02.724Z,1005.38
2018-01-28T03:16:02.730Z,1005.38
2018-01-28T03:17:02.758Z,1005.45
2018-01-28T03:18:02.792Z,1005.50
2018-01-28T03:19:02.823Z,1005.54
2018-01-28T03:20:02.856Z,1005.55
2018-01-28T03:21:02.884Z,1005.56
2018-01-28T03:22:02.917Z,1005.68
2018-01-28T03:23:02.950Z,1005.61
2018-01-28T03:24:02.982Z,1005.64
2018-01-28T03:25:03.011Z,1005.61
2018-01-28T03:26:03.050Z,1005.59
2018-01-28T03:27:03.076Z,1005.63
2018-01-28T03:28:03.105Z,1005.65
2018-01-28T03:29:03.142Z,1005.69
2018-01-28T03:30:03.172Z,1005.72
2018-01-28T03:31:03.202Z,1005.69
2018-01-28T03:32:03.239Z,1005.72
2018-01-28T03:33:03.281Z,1005.72
2018-01-28T03:34:03.297Z,1005.80
2018-01-28T03:35:03.334Z,1005.75
2018-01-28T03:36:03.362Z,1005.84
2018-01-28T03:37:03.392Z,1005.81
2018-01-28T03:38:03.424Z,1005.93
2018-01-28T03:39:03.456Z,1005.93
2018-01-28T03:40:03.487Z,1006.02
2018-01-28T03:41:03.522Z,1006.07
2018-01-28T03:42:03.554Z,1006.11
2018-01-28T03:43:03.583Z,1006.13
2018-01-28T03:44:03.615Z,1006.09
2018-01-28T03:45:03.656Z,1006.05
2018-01-28T03:46:03.678Z,1005.95
2018-01-28T03:47:03.719Z,1005.97
2018-01-28T03:48:03.743Z,1006.02
2018-01-28T03:49:03.838Z,1006.03
2018-01-28T03:50:03.806Z,1006.00
2018-01-28T03:51:03.893Z,1005.96
2018-01-28T03:52:03.874Z,1006.00
2018-01-28T03:53:03.905Z,1005.95
2018-01-28T03:54:03.947Z,1005.90
2018-01-28T03:55:03.964Z,1005.81
2018-01-28T03:56:03.997Z,1005.90
2018-01-28T03:57:04.028Z,1005.91
2018-01-28T03:58:04.165Z,1005.92
2018-01-28T03:59:04.094Z,1005.85
2018-01-28T04:00:04.138Z,1005.87
2018-01-28T04:01:04.153Z,1005.81
2018-01-28T04:02:04.189Z,1005.86
2018-01-28T04:03:04.218Z,1005.77
2018-01-28T04:04:04.250Z,1005.74
2018-01-28T04:05:04.359Z,1005.77
2018-01-28T04:06:04.317Z,1005.80
2018-01-28T04:07:04.345Z,1005.71
2018-01-28T04:08:04.378Z,1005.74
2018-01-28T04:09:04.412Z,1005.75
2018-01-28T04:10:04.440Z,1005.80
2018-01-28T04:11:04.475Z,1005.78
2018-01-28T04:12:04.506Z,1005.82
2018-01-28T04:13:04.536Z,1005.90
2018-01-28T04:14:04.570Z,1005.92
2018-01-28T04:15:04.600Z,1005.92
2018-01-28T04:16:04.632Z,1005.92
2018-01-28T04:17:04.661Z,1005.87
2018-01-28T04:18:04.697Z,1005.92
2018-01-28T04:19:04.728Z,1006.00
2018-01-28T04:20:04.759Z,1005.93
2018-01-28T04:21:04.790Z,1005.95
2018-01-28T04:22:04.857Z,1005.85
2018-01-28T04:23:04.851Z,1005.99
2018-01-28T04:24:04.896Z,1006.06
2018-01-28T04:25:04.917Z,1006.08
2018-01-28T04:26:04.949Z,1006.14
2018-01-28T04:27:04.981Z,1006.07
2018-01-28T04:28:05.019Z,1006.07
2018-01-28T04:29:05.370Z,1006.05
2018-01-28T04:30:05.079Z,1006.03
2018-01-28T04:31:05.109Z,1006.03
2018-01-28T04:32:05.139Z,1005.97
2018-01-28T04:33:05.171Z,1005.96
2018-01-28T04:34:05.201Z,1005.98
2018-01-28T04:35:05.235Z,1005.98
2018-01-28T04:36:05.268Z,1006.03
2018-01-28T04:37:05.295Z,1006.06
2018-01-28T04:38:05.328Z,1006.00
2018-01-28T04:39:05.358Z,1005.89
2018-01-28T04:40:05.392Z,1006.00
2018-01-28T04:41:05.492Z,1005.85
2018-01-28T04:42:05.454Z,1005.94
2018-01-28T04:43:05.491Z,1006.01
2018-01-28T04:44:05.534Z,1006.08
2018-01-28T04:45:05.551Z,1006.05
2018-01-28T04:46:05.584Z,1006.09
2018-01-28T04:47:05.617Z,1006.15
2018-01-28T04:48:05.719Z,1006.15
2018-01-28T04:49:05.679Z,1006.11
2018-01-28T04:50:05.710Z,1006.06
2018-01-28T04:51:05.743Z,1006.07
2018-01-28T04:52:05.776Z,1006.12
2018-01-28T04:53:05.800Z,1006.10
2018-01-28T04:54:05.834Z,1006.15
2018-01-28T04:55:05.867Z,1006.21
2018-01-28T04:56:05.897Z,1006.22
2018-01-28T04:57:05.931Z,1006.25
2018-01-28T04:58:05.969Z,1006.26
2018-01-28T04:59:05.994Z,1006.25
2018-01-28T05:00:06.025Z,1006.18
2018-01-28T05:01:06.054Z,1006.13
2018-01-28T05:02:06.089Z,1006.13
2018-01-28T05:03:06.122Z,1006.01
2018-01-28T05:04:06.153Z,1006.02
2018-01-28T05:05:06.242Z,1006.10
2018-01-28T05:06:06.262Z,1006.11
2018-01-28T05:07:06.244Z,1006.05
2018-01-28T05:08:06.279Z,1006.06
2018-01-28T05:09:06.312Z,1005.99
2018-01-28T05:10:06.357Z,1005.97
2018-01-28T05:11:06.420Z,1006.03
2018-01-28T05:12:06.433Z,1006.04
2018-01-28T05:13:06.635Z,1005.93
2018-01-28T05:14:06.468Z,1005.90
2018-01-28T05:15:06.498Z,1005.86
2018-01-28T05:16:06.533Z,1005.83
2018-01-28T05:17:06.563Z,1005.88
2018-01-28T05:18:06.594Z,1005.97
2018-01-28T05:19:06.642Z,1006.01
2018-01-28T05:20:06.659Z,1006.00
2018-01-28T05:21:06.689Z,1005.97
2018-01-28T05:22:06.723Z,1006.03
2018-01-28T05:23:06.755Z,1006.01
2018-01-28T05:24:06.784Z,1006.01
2018-01-28T05:25:06.814Z,1005.96
2018-01-28T05:26:06.849Z,1005.99
2018-01-28T05:27:06.879Z,1005.96
2018-01-28T05:28:06.914Z,1006.13
2018-01-28T05:29:06.945Z,1006.02
2018-01-28T05:30:06.975Z,1006.06
2018-01-28T05:32:07.039Z,1006.03
2018-01-28T05:33:07.071Z,1006.18
2018-01-28T05:34:07.106Z,1006.15
2018-01-28T05:35:07.137Z,1006.15
2018-01-28T05:36:07.167Z,1006.10
2018-01-28T05:37:07.199Z,1006.08
2018-01-28T05:38:07.230Z,1006.20
2018-01-28T05:39:07.265Z,1006.17
2018-01-28T05:40:07.310Z,1006.18
2018-01-28T05:41:07.326Z,1006.11
2018-01-28T05:42:07.358Z,1006.15
2018-01-28T05:43:07.389Z,1006.14
2018-01-28T05:44:07.430Z,1006.14
2018-01-28T05:45:07.451Z,1006.19
2018-01-28T05:46:07.500Z,1006.20
2018-01-28T05:47:07.517Z,1006.23
2018-01-28T05:48:07.556Z,1006.30
2018-01-28T05:49:07.580Z,1006.32
2018-01-28T05:50:07.614Z,1006.36
2018-01-28T05:51:07.642Z,1006.28
2018-01-28T05:52:07.680Z,1006.29
2018-01-28T05:53:07.708Z,1006.23
2018-01-28T05:54:07.741Z,1006.27
2018-01-28T05:55:07.853Z,1006.35
2018-01-28T05:56:07.802Z,1006.39
2018-01-28T05:57:07.833Z,1006.44
2018-01-28T05:58:07.868Z,1006.48
2018-01-28T05:59:07.898Z,1006.50
2018-01-28T06:00:07.947Z,1006.46
2018-01-28T06:01:07.961Z,1006.46
2018-01-28T06:02:07.994Z,1006.52
2018-01-28T06:03:08.030Z,1006.51
2018-01-28T06:04:08.060Z,1006.59
2018-01-28T06:05:08.088Z,1006.61
2018-01-28T06:06:08.120Z,1006.53
2018-01-28T06:07:08.151Z,1006.52
2018-01-28T06:08:08.191Z,1006.59
2018-01-28T06:09:08.221Z,1006.55
2018-01-28T06:10:08.258Z,1006.50
2018-01-28T06:11:08.281Z,1006.60
2018-01-28T06:12:08.321Z,1006.63
2018-01-28T06:13:08.347Z,1006.71
2018-01-28T06:14:08.376Z,1006.72
2018-01-28T06:15:08.412Z,1006.68
2018-01-28T06:16:08.442Z,1006.77
2018-01-28T06:17:08.470Z,1006.80
2018-01-28T06:18:08.506Z,1006.80
2018-01-28T06:19:08.537Z,1006.78
2018-01-28T06:20:08.570Z,1006.75
2018-01-28T06:21:08.620Z,1006.78
2018-01-28T06:22:08.634Z,1006.82
2018-01-28T06:23:08.683Z,1006.83
2018-01-28T06:24:08.697Z,1006.80
2018-01-28T06:25:08.726Z,1006.83
2018-01-28T06:26:08.761Z,1006.82
2018-01-28T06:27:08.799Z,1006.81
2018-01-28T06:28:08.825Z,1006.86
2018-01-28T06:29:08.854Z,1006.84
2018-01-28T06:30:08.886Z,1006.81
2018-01-28T06:31:08.925Z,1006.83
2018-01-28T06:32:08.952Z,1006.79
2018-01-28T06:33:08.994Z,1006.79
2018-01-28T06:34:09.014Z,1006.77
2018-01-28T06:35:09.047Z,1006.67
2018-01-28T06:36:09.077Z,1006.68
2018-01-28T06:37:09.112Z,1006.70
2018-01-28T06:38:09.482Z,1006.68
2018-01-28T06:39:09.173Z,1006.55
2018-01-28T06:40:09.208Z,1006.49
2018-01-28T06:41:09.252Z,1006.47
2018-01-28T06:42:09.268Z,1006.39
2018-01-28T06:43:09.303Z,1006.35
2018-01-28T06:44:09.336Z,1006.32
2018-01-28T06:45:09.371Z,1006.30
2018-01-28T06:46:09.403Z,1006.34
2018-01-28T06:47:09.431Z,1006.32
2018-01-28T06:48:09.463Z,1006.27
2018-01-28T06:49:09.500Z,1006.27
2018-01-28T06:50:09.524Z,1006.29
2018-01-28T06:51:09.570Z,1006.31
2018-01-28T06:52:09.588Z,1006.32
2018-01-28T06:53:09.619Z,1006.40
2018-01-28T06:54:09.655Z,1006.41
2018-01-28T06:55:09.685Z,1006.49
2018-01-28T06:56:09.718Z,1006.52
2018-01-28T06:57:09.758Z,1006.53
2018-01-28T06:58:09.840Z,1006.57
2018-01-28T06:59:09.816Z,1006.60
2018-01-28T07:00:09.845Z,1006.65
2018-01-28T07:01:09.875Z,1006.66
2018-01-28T07:02:09.978Z,1006.76
2018-01-28T07:03:09.938Z,1006.72
2018-01-28T07:04:09.972Z,1006.68
2018-01-28T07:05:10.010Z,1006.75
2018-01-28T07:06:10.037Z,1006.83
2018-01-28T07:07:10.068Z,1006.78
2018-01-28T07:08:10.099Z,1006.87
2018-01-28T07:09:10.129Z,1006.92
2018-01-28T07:10:10.161Z,1007.04
2018-01-28T07:11:10.196Z,1006.89
2018-01-28T07:12:10.227Z,1006.93
2018-01-28T07:13:10.256Z,1006.97
2018-01-28T07:14:10.296Z,1006.92
2018-01-28T07:15:10.320Z,1006.89
2018-01-28T07:16:10.411Z,1006.90
2018-01-28T07:17:10.387Z,1006.93
2018-01-28T07:18:10.418Z,1006.93
2018-01-28T07:19:10.447Z,1006.90
2018-01-28T07:20:10.480Z,1006.94
2018-01-28T07:21:10.561Z,1006.95
2018-01-28T07:22:10.543Z,1006.97
2018-01-28T07:23:10.579Z,1006.95
2018-01-28T07:24:10.608Z,1006.99
2018-01-28T07:25:10.638Z,1007.02
2018-01-28T07:26:10.673Z,1007.05
2018-01-28T07:27:10.705Z,1007.00
2018-01-28T07:28:10.838Z,1007.02
2018-01-28T07:29:10.769Z,1007.05
2018-01-28T07:30:10.800Z,1007.13
2018-01-28T07:31:10.830Z,1007.20
2018-01-28T07:32:10.863Z,1007.22
2018-01-28T07:33:10.892Z,1007.26
2018-01-28T07:34:10.929Z,1007.19
2018-01-28T07:35:10.961Z,1007.25
2018-01-28T07:36:10.990Z,1007.27
2018-01-28T07:37:11.025Z,1007.28
2018-01-28T07:38:11.056Z,1007.30
2018-01-28T07:39:11.092Z,1007.31
2018-01-28T07:40:11.122Z,1007.33
2018-01-28T07:41:11.150Z,1007.37
2018-01-28T07:42:11.181Z,1007.24
2018-01-28T07:43:11.214Z,1007.35
2018-01-28T07:44:11.245Z,1007.32
2018-01-28T07:45:11.381Z,1007.34
2018-01-28T07:46:11.308Z,1007.31
2018-01-28T07:47:11.348Z,1007.35
2018-01-28T07:48:11.372Z,1007.27
2018-01-28T07:49:11.404Z,1007.29
2018-01-28T07:50:11.434Z,1007.30
2018-01-28T07:51:11.465Z,1007.32
2018-01-28T07:52:11.576Z,1007.38
2018-01-28T07:53:11.531Z,1007.33
2018-01-28T07:54:11.562Z,1007.33
2018-01-28T07:55:11.595Z,1007.38
2018-01-28T07:56:11.628Z,1007.38
2018-01-28T07:57:11.658Z,1007.37
2018-01-28T07:58:11.690Z,1007.39
2018-01-28T07:59:11.725Z,1007.30
2018-01-28T08:00:11.754Z,1007.29
2018-01-28T08:01:11.785Z,1007.33
2018-01-28T08:02:11.818Z,1007.32
2018-01-28T08:03:11.852Z,1007.39
2018-01-28T08:04:11.887Z,1007.40
2018-01-28T08:05:11.913Z,1007.45
2018-01-28T08:06:11.949Z,1007.47
2018-01-28T08:07:11.978Z,1007.45
2018-01-28T08:08:12.013Z,1007.42
2018-01-28T08:09:12.044Z,1007.39
2018-01-28T08:10:12.073Z,1007.57
2018-01-28T08:11:12.173Z,1007.40
2018-01-28T08:12:12.148Z,1007.45
2018-01-28T08:13:12.168Z,1007.38
2018-01-28T08:14:12.204Z,1007.43
2018-01-28T08:15:12.235Z,1007.39
2018-01-28T08:16:12.275Z,1007.45
2018-01-28T08:17:12.299Z,1007.47
2018-01-28T08:18:12.330Z,1007.51
2018-01-28T08:19:12.383Z,1007.47
2018-01-28T08:20:12.397Z,1007.51
2018-01-28T08:21:12.428Z,1007.51
2018-01-28T08:22:12.458Z,1007.48
2018-01-28T08:24:12.525Z,1007.53
2018-01-28T08:25:12.556Z,1007.57
2018-01-28T08:26:12.591Z,1007.64
2018-01-28T08:27:12.626Z,1007.62
2018-01-28T08:28:12.669Z,1007.66
2018-01-28T08:29:12.686Z,1007.70
2018-01-28T08:30:12.716Z,1007.73
2018-01-28T08:31:12.750Z,1007.81
2018-01-28T08:32:12.780Z,1007.69
2018-01-28T08:33:12.815Z,1007.67
2018-01-28T08:34:12.846Z,1007.70
2018-01-28T08:35:12.903Z,1007.73
2018-01-28T08:36:12.920Z,1007.75
2018-01-28T08:37:12.942Z,1007.78
2018-01-28T08:38:12.976Z,1007.76
2018-01-28T08:39:13.009Z,1007.88
2018-01-28T08:40:13.039Z,1007.88
2018-01-28T08:41:13.095Z,1007.78
2018-01-28T08:42:13.189Z,1007.80
2018-01-28T08:43:13.137Z,1007.79
2018-01-28T08:44:13.170Z,1007.86
2018-01-28T08:45:13.199Z,1007.78
2018-01-28T08:46:13.234Z,1007.86
2018-01-28T08:47:13.265Z,1007.92
2018-01-28T08:48:13.298Z,1007.93
2018-01-28T08:49:13.331Z,1007.94
2018-01-28T08:50:13.420Z,1007.92
2018-01-28T08:51:13.394Z,1007.96
2018-01-28T08:52:13.431Z,1007.98
2018-01-28T08:53:13.458Z,1007.94
2018-01-28T08:54:13.492Z,1007.93
2018-01-28T08:55:13.534Z,1007.92
2018-01-28T08:56:13.560Z,1007.91
2018-01-28T08:57:13.589Z,1007.86
2018-01-28T08:58:13.620Z,1007.98
2018-01-28T08:59:13.652Z,1007.91
2018-01-28T09:00:13.684Z,1008.02
2018-01-28T09:01:13.744Z,1007.95
2018-01-28T09:02:13.753Z,1007.96
2018-01-28T09:03:13.785Z,1008.01
2018-01-28T09:04:13.816Z,1008.05
2018-01-28T09:05:13.849Z,1008.06
2018-01-28T09:06:13.880Z,1008.06
2018-01-28T09:07:13.911Z,1008.07
2018-01-28T09:08:13.951Z,1008.08
2018-01-28T09:09:13.977Z,1008.05
2018-01-28T09:10:14.010Z,1008.08
2018-01-28T09:11:14.054Z,1008.10
2018-01-28T09:12:14.073Z,1008.15
2018-01-28T09:13:14.104Z,1008.16
2018-01-28T09:14:14.143Z,1008.18
2018-01-28T09:15:14.171Z,1008.18
2018-01-28T09:16:14.207Z,1008.15
2018-01-28T09:17:14.233Z,1008.18
2018-01-28T09:18:14.371Z,1008.19
2018-01-28T09:19:14.302Z,1008.20
2018-01-28T09:20:14.332Z,1008.28
2018-01-28T09:21:14.365Z,1008.27
2018-01-28T09:22:14.404Z,1008.25
2018-01-28T09:23:14.428Z,1008.22
2018-01-28T09:24:14.461Z,1008.17
2018-01-28T09:25:14.541Z,1008.13
2018-01-28T09:26:14.525Z,1008.20
2018-01-28T09:27:14.557Z,1008.19
2018-01-28T09:28:14.593Z,1008.19
2018-01-28T09:29:14.632Z,1008.22
2018-01-28T09:30:14.656Z,1008.17
2018-01-28T09:31:14.688Z,1008.24
2018-01-28T09:32:14.723Z,1008.22
2018-01-28T09:33:14.757Z,1008.20
2018-01-28T09:34:14.794Z,1008.21
2018-01-28T09:35:14.823Z,1008.21
2018-01-28T09:36:14.855Z,1008.22
2018-01-28T09:37:14.883Z,1008.16
2018-01-28T09:38:14.925Z,1008.15
2018-01-28T09:39:14.951Z,1008.13
2018-01-28T09:40:14.992Z,1008.12
2018-01-28T09:41:15.015Z,1008.11
2018-01-28T09:42:15.151Z,1008.09
2018-01-28T09:43:15.079Z,1008.14
2018-01-28T09:44:15.115Z,1008.25
2018-01-28T09:45:15.144Z,1008.14
2018-01-28T09:46:15.175Z,1008.21
2018-01-28T09:47:15.209Z,1008.21
2018-01-28T09:48:15.244Z,1008.24
2018-01-28T09:49:15.666Z,1008.23
2018-01-28T09:50:15.308Z,1008.15
2018-01-28T09:51:15.343Z,1008.19
2018-01-28T09:52:15.383Z,1008.21
2018-01-28T09:53:15.461Z,1008.25
2018-01-28T09:54:15.437Z,1008.23
2018-01-28T09:55:15.476Z,1008.28
2018-01-28T09:56:15.506Z,1008.22
2018-01-28T09:57:15.536Z,1008.29
2018-01-28T09:58:15.577Z,1008.26
2018-01-28T09:59:15.601Z,1008.25
2018-01-28T10:00:15.638Z,1008.27
2018-01-28T10:01:15.720Z,1008.29
2018-01-28T10:02:15.698Z,1008.35
2018-01-28T10:03:15.732Z,1008.32
2018-01-28T10:04:15.769Z,1008.29
2018-01-28T10:05:15.798Z,1008.32
2018-01-28T10:06:15.832Z,1008.31
2018-01-28T10:07:15.867Z,1008.35
2018-01-28T10:08:15.967Z,1008.34
2018-01-28T10:09:15.931Z,1008.35
2018-01-28T10:10:15.964Z,1008.33
2018-01-28T10:11:15.995Z,1008.39
2018-01-28T10:12:16.048Z,1008.38
2018-01-28T10:13:16.062Z,1008.41
2018-01-28T10:14:16.098Z,1008.38
2018-01-28T10:15:16.130Z,1008.49
2018-01-28T10:16:16.168Z,1008.44
2018-01-28T10:17:16.199Z,1008.45
2018-01-28T10:18:16.433Z,1008.51
2018-01-28T10:19:16.260Z,1008.52
2018-01-28T10:20:16.305Z,1008.56
2018-01-28T10:21:16.329Z,1008.57
2018-01-28T10:22:16.387Z,1008.55
2018-01-28T10:23:16.396Z,1008.59
2018-01-28T10:24:16.490Z,1008.59
2018-01-28T10:25:16.469Z,1008.55
2018-01-28T10:26:16.492Z,1008.57
2018-01-28T10:27:16.531Z,1008.54
2018-01-28T10:28:16.579Z,1008.58
2018-01-28T10:29:16.595Z,1008.52
2018-01-28T10:30:16.624Z,1008.50
2018-01-28T10:31:16.659Z,1008.52
2018-01-28T10:32:16.721Z,1008.48
2018-01-28T10:33:16.726Z,1008.51
2018-01-28T10:34:16.761Z,1008.54
2018-01-28T10:35:16.793Z,1008.58
2018-01-28T10:36:16.828Z,1008.57
2018-01-28T10:37:16.862Z,1008.54
2018-01-28T10:38:16.891Z,1008.57
2018-01-28T10:39:16.981Z,1008.56
2018-01-28T10:40:16.961Z,1008.57
2018-01-28T10:41:16.993Z,1008.56
2018-01-28T10:42:17.030Z,1008.58
2018-01-28T10:43:17.062Z,1008.55
2018-01-28T10:44:17.415Z,1008.51
2018-01-28T10:45:17.131Z,1008.53
2018-01-28T10:46:17.175Z,1008.51
2018-01-28T10:47:17.196Z,1008.62
2018-01-28T10:48:17.239Z,1008.64
2018-01-28T10:49:17.264Z,1008.69
2018-01-28T10:50:17.295Z,1008.65
2018-01-28T10:51:17.338Z,1008.62
2018-01-28T10:52:17.362Z,1008.59
2018-01-28T10:53:17.398Z,1008.54
2018-01-28T10:54:17.439Z,1008.58
2018-01-28T10:55:17.465Z,1008.54
2018-01-28T10:56:17.503Z,1008.52
2018-01-28T10:57:17.529Z,1008.56
2018-01-28T10:58:17.564Z,1008.53
2018-01-28T10:59:17.597Z,1008.58
2018-01-28T11:00:17.634Z,1008.52
2018-01-28T11:01:17.715Z,1008.55
2018-01-28T11:02:17.696Z,1008.54
2018-01-28T11:03:17.734Z,1008.56
2018-01-28T11:04:17.765Z,1008.49
2018-01-28T11:05:17.800Z,1008.61
2018-01-28T11:06:17.832Z,1008.57
2018-01-28T11:07:17.870Z,1008.63
2018-01-28T11:08:17.965Z,1008.62
2018-01-28T11:09:17.934Z,1008.69
2018-01-28T11:10:17.968Z,1008.69
2018-01-28T11:11:18.000Z,1008.65
2018-01-28T11:12:18.035Z,1008.56
2018-01-28T11:13:18.067Z,1008.58
2018-01-28T11:14:18.112Z,1008.60
2018-01-28T11:15:18.138Z,1008.58
2018-01-28T11:16:18.195Z,1008.66
2018-01-28T11:17:18.411Z,1008.63
2018-01-28T11:18:18.454Z,1008.61
2018-01-28T11:19:18.277Z,1008.63
2018-01-28T11:20:18.511Z,1008.62
2018-01-28T11:21:18.347Z,1008.55
2018-01-28T11:22:18.390Z,1008.48
2018-01-28T11:23:18.413Z,1008.47
2018-01-28T11:24:18.456Z,1008.50
2018-01-28T11:25:18.491Z,1008.50
2018-01-28T11:26:18.526Z,1008.52
2018-01-28T11:27:18.962Z,1008.54
2018-01-28T11:28:18.590Z,1008.60
2018-01-28T11:29:18.614Z,1008.63
2018-01-28T11:30:18.646Z,1008.62
2018-01-28T11:31:18.682Z,1008.62
2018-01-28T11:32:18.717Z,1008.65
2018-01-28T11:33:18.747Z,1008.70
2018-01-28T11:34:18.787Z,1008.65
2018-01-28T11:35:18.821Z,1008.62
2018-01-28T11:36:19.063Z,1008.65
2018-01-28T11:37:19.001Z,1008.66
2018-01-28T11:38:18.934Z,1008.63
2018-01-28T11:39:18.959Z,1008.69
2018-01-28T11:40:19.320Z,1008.60
2018-01-28T11:41:19.043Z,1008.61
2018-01-28T11:42:19.060Z,1008.68
2018-01-28T11:43:19.184Z,1008.69
2018-01-28T11:44:19.131Z,1008.74
2018-01-28T11:45:19.170Z,1008.73
2018-01-28T11:46:19.253Z,1008.78
2018-01-28T11:47:19.243Z,1008.81
2018-01-28T11:48:19.270Z,1008.73
2018-01-28T11:49:19.299Z,1008.68
2018-01-28T11:50:19.364Z,1008.73
2018-01-28T11:51:19.367Z,1008.70
2018-01-28T11:52:19.400Z,1008.72
2018-01-28T11:53:19.633Z,1008.70
2018-01-28T11:54:19.671Z,1008.69
2018-01-28T11:55:19.511Z,1008.74
2018-01-28T11:56:19.594Z,1008.74
2018-01-28T11:57:19.576Z,1008.77
2018-01-28T11:58:19.604Z,1008.76
2018-01-28T11:59:19.641Z,1008.80
2018-01-28T12:00:19.673Z,1008.71
2018-01-28T12:02:19.809Z,1008.68
2018-01-28T12:03:19.774Z,1008.75
2018-01-28T12:04:20.172Z,1008.70
2018-01-28T12:05:19.842Z,1008.69
2018-01-28T12:06:19.873Z,1008.75
2018-01-28T12:07:19.976Z,1008.70
2018-01-28T12:08:19.947Z,1008.68
2018-01-28T12:09:19.980Z,1008.74
2018-01-28T12:10:20.028Z,1008.72
2018-01-28T12:11:20.059Z,1008.72